Time;durP1;ratioP1;P1;durP2;ratioP2;P2;SDS_P1;SDS_P2;PMS_P1;PMS_P2;Temp;Humidity;BMP_temperature;BMP_pressure;BME280_temperature;BME280_humidity;BME280_pressure;Samples;Min_cycle;Max_cycle;Signal;HPM_P1;HPM_P2
2022/05/07 00:01:19;;;;;;;3.92;2.80;;;;;;;;;;4161159;34;20111;-62
2022/05/07 00:33:48;;;;;;;5.32;3.00;;;;;;;;;;4378221;28;20130;-66
2022/05/07 00:36:14;;;;;;;5.43;3.17;;;;;;;;;;4175874;34;20106;-67
2022/05/07 00:38:40;;;;;;;3.78;2.83;;;;;;;;;;4176788;34;20125;-67
2022/05/07 00:41:06;;;;;;;8.68;3.47;;;;;;;;;;4176889;34;20137;-67
2022/05/07 00:43:36;;;;;;;7.10;3.03;;;;;;;;;;4176860;34;20562;-69
2022/05/07 00:46:02;;;;;;;6.65;3.40;;;;;;;;;;4164393;34;20129;-70
2022/05/07 00:48:29;;;;;;;5.57;3.15;;;;;;;;;;4164340;34;20545;-67
2022/05/07 00:53:41;;;;;;;10.77;4.00;;;;;;;;;;4165729;34;20202;-67
2022/05/07 00:56:07;;;;;;;6.75;3.67;;;;;;;;;;4164252;34;20113;-70
2022/05/07 00:58:36;;;;;;;8.38;3.28;;;;;;;;;;4163641;34;20208;-71
2022/05/07 01:01:02;;;;;;;9.68;3.30;;;;;;;;;;4176276;34;20503;-70
2022/05/07 01:03:29;;;;;;;5.22;3.33;;;;;;;;;;4176666;34;20210;-69
2022/05/07 01:05:55;;;;;;;4.40;2.80;;;;;;;;;;4176587;34;20137;-69
2022/05/07 01:08:21;;;;;;;4.30;2.60;;;;;;;;;;4163610;34;20624;-70
2022/05/07 01:10:48;;;;;;;7.70;3.15;;;;;;;;;;4163870;34;20173;-70
2022/05/07 01:13:14;;;;;;;5.15;2.85;;;;;;;;;;4163997;34;20205;-67
2022/05/07 01:15:47;;;;;;;6.72;3.12;;;;;;;;;;4163571;34;20466;-67
2022/05/07 01:18:15;;;;;;;2.78;2.20;;;;;;;;;;4176367;34;20615;-67
2022/05/07 01:20:41;;;;;;;4.65;2.83;;;;;;;;;;4176300;34;20197;-67
2022/05/07 01:23:08;;;;;;;5.32;2.45;;;;;;;;;;4176360;34;20550;-67
2022/05/07 01:25:34;;;;;;;6.53;2.47;;;;;;;;;;4163634;34;20130;-67
2022/05/07 01:28:00;;;;;;;6.05;2.37;;;;;;;;;;4163560;34;20206;-67
2022/05/07 01:30:26;;;;;;;3.95;2.65;;;;;;;;;;4176210;34;20114;-67
2022/05/07 01:32:53;;;;;;;8.75;3.58;;;;;;;;;;4163368;34;20098;-67
2022/05/07 01:35:19;;;;;;;6.25;2.95;;;;;;;;;;4163708;34;20109;-68
2022/05/07 01:37:45;;;;;;;6.37;3.00;;;;;;;;;;4176443;34;20095;-68
2022/05/07 01:40:13;;;;;;;5.03;2.87;;;;;;;;;;4176135;34;20113;-66
2022/05/07 01:42:39;;;;;;;9.88;6.22;;;;;;;;;;4176214;34;20101;-66
2022/05/07 01:45:06;;;;;;;18.52;12.20;;;;;;;;;;4163366;34;20518;-66
2022/05/07 01:50:24;;;;;;;5.87;3.30;;;;;;;;;;4178181;34;20099;-66
2022/05/07 01:52:50;;;;;;;6.82;3.47;;;;;;;;;;4178614;34;20098;-66
2022/05/07 01:55:16;;;;;;;9.57;3.50;;;;;;;;;;4178174;34;20106;-67
2022/05/07 01:57:42;;;;;;;7.95;3.20;;;;;;;;;;4178120;34;20102;-67
2022/05/07 02:00:08;;;;;;;4.95;3.20;;;;;;;;;;4178140;34;20103;-67
2022/05/07 02:02:35;;;;;;;6.85;3.35;;;;;;;;;;4178112;34;20146;-69
2022/05/07 02:05:01;;;;;;;7.37;2.87;;;;;;;;;;4178212;34;20098;-68
2022/05/07 02:07:27;;;;;;;4.95;3.20;;;;;;;;;;4165564;34;20128;-68
2022/05/07 02:09:53;;;;;;;4.82;3.30;;;;;;;;;;4178037;34;20110;-67
2022/05/07 02:12:19;;;;;;;10.23;3.42;;;;;;;;;;4178280;34;20523;-68
2022/05/07 02:14:45;;;;;;;5.93;3.00;;;;;;;;;;4178330;34;20114;-69
2022/05/07 02:17:11;;;;;;;11.68;3.50;;;;;;;;;;4165332;34;20161;-69
2022/05/07 02:19:37;;;;;;;12.90;3.22;;;;;;;;;;4177959;34;20591;-69
2022/05/07 02:22:03;;;;;;;7.93;3.00;;;;;;;;;;4177936;34;20114;-69
2022/05/07 02:24:30;;;;;;;9.18;3.45;;;;;;;;;;4177981;34;20095;-68
2022/05/07 02:26:56;;;;;;;7.53;3.33;;;;;;;;;;4154128;34;20098;-68
2022/05/07 02:29:22;;;;;;;5.75;3.37;;;;;;;;;;4177843;34;20171;-69
2022/05/07 02:32:03;;;;;;;12.27;3.58;;;;;;;;;;4165199;34;20228;-69
2022/05/07 02:34:36;;;;;;;8.68;3.25;;;;;;;;;;4177932;34;20149;-68
2022/05/07 02:37:03;;;;;;;12.88;3.08;;;;;;;;;;4177917;34;20106;-68
2022/05/07 02:39:30;;;;;;;12.65;4.07;;;;;;;;;;4177903;34;20134;-69
2022/05/07 02:44:40;;;;;;;15.32;4.75;;;;;;;;;;4177858;34;20161;-69
2022/05/07 02:47:07;;;;;;;16.33;3.90;;;;;;;;;;4177834;34;20190;-68
2022/05/07 02:49:33;;;;;;;12.50;3.42;;;;;;;;;;4177807;34;20321;-69
2022/05/07 02:51:59;;;;;;;11.10;3.58;;;;;;;;;;4177765;34;20206;-69
2022/05/07 02:54:25;;;;;;;15.57;3.67;;;;;;;;;;4164885;34;20122;-69
2022/05/07 02:56:51;;;;;;;8.90;3.37;;;;;;;;;;4177752;34;20106;-68
2022/05/07 02:59:17;;;;;;;7.57;3.35;;;;;;;;;;4164638;34;20204;-67
2022/05/07 03:01:43;;;;;;;18.08;3.70;;;;;;;;;;4177618;34;20226;-69
2022/05/07 03:04:10;;;;;;;10.25;3.20;;;;;;;;;;4165198;34;20578;-69
2022/05/07 03:06:37;;;;;;;8.20;2.85;;;;;;;;;;4165185;34;20102;-68
2022/05/07 03:09:03;;;;;;;8.05;2.78;;;;;;;;;;4177812;34;20113;-69
2022/05/07 03:11:33;;;;;;;5.60;2.92;;;;;;;;;;4177451;34;20555;-68
2022/05/07 03:14:02;;;;;;;9.13;3.17;;;;;;;;;;4177466;34;20106;-67
2022/05/07 03:16:29;;;;;;;7.05;2.90;;;;;;;;;;4164966;34;20210;-67
2022/05/07 03:18:55;;;;;;;9.00;2.72;;;;;;;;;;4177523;34;20516;-68
2022/05/07 03:21:21;;;;;;;8.07;2.50;;;;;;;;;;4177491;34;20298;-70
2022/05/07 03:23:47;;;;;;;6.45;2.47;;;;;;;;;;4164760;34;20443;-72
2022/05/07 03:26:13;;;;;;;5.70;2.47;;;;;;;;;;4177304;34;20122;-73
2022/05/07 03:28:40;;;;;;;6.25;2.35;;;;;;;;;;4177197;34;20106;-73
2022/05/07 03:31:06;;;;;;;5.78;2.22;;;;;;;;;;4164604;34;20203;-73
2022/05/07 03:33:33;;;;;;;7.12;2.65;;;;;;;;;;4177466;34;20113;-73
2022/05/07 03:35:59;;;;;;;3.22;1.90;;;;;;;;;;4164575;34;20118;-73
2022/05/07 03:38:25;;;;;;;6.68;1.98;;;;;;;;;;4164963;34;20440;-74
2022/05/07 03:40:51;;;;;;;7.72;1.70;;;;;;;;;;4170151;34;20098;-67
2022/05/07 03:43:17;;;;;;;6.78;2.15;;;;;;;;;;4163886;34;20099;-68
2022/05/07 03:45:43;;;;;;;1.60;1.50;;;;;;;;;;4163627;34;20095;-71
2022/05/07 03:48:10;;;;;;;2.40;1.73;;;;;;;;;;4163541;34;20126;-69
2022/05/07 03:50:36;;;;;;;7.60;1.70;;;;;;;;;;4162215;34;20313;-70
2022/05/07 03:55:47;;;;;;;7.05;1.77;;;;;;;;;;4163718;34;20106;-69
2022/05/07 03:58:17;;;;;;;2.75;1.85;;;;;;;;;;4163486;34;20592;-69
2022/05/07 04:00:43;;;;;;;2.67;1.48;;;;;;;;;;4162190;34;20562;-67
2022/05/07 04:03:10;;;;;;;4.35;1.80;;;;;;;;;;4163583;34;20240;-66
2022/05/07 04:05:36;;;;;;;3.50;1.52;;;;;;;;;;4162229;34;20084;-66
2022/05/07 04:08:03;;;;;;;4.10;1.98;;;;;;;;;;4163606;34;20957;-66
2022/05/07 04:10:29;;;;;;;3.08;1.98;;;;;;;;;;4165956;34;20411;-66
2022/05/07 04:12:55;;;;;;;2.95;1.80;;;;;;;;;;4176331;34;20502;-66
2022/05/07 04:15:21;;;;;;;2.58;1.75;;;;;;;;;;4176948;34;20208;-64
2022/05/07 04:17:48;;;;;;;11.35;2.08;;;;;;;;;;4177226;34;20098;-67
2022/05/07 04:20:14;;;;;;;2.55;1.85;;;;;;;;;;4177069;34;20212;-66
2022/05/07 04:22:41;;;;;;;5.22;1.87;;;;;;;;;;4163835;34;20113;-66
2022/05/07 04:25:08;;;;;;;7.97;2.35;;;;;;;;;;4163587;34;20115;-65
2022/05/07 04:27:34;;;;;;;2.42;1.90;;;;;;;;;;4164263;34;20312;-66
2022/05/07 04:30:00;;;;;;;3.45;1.87;;;;;;;;;;4176778;34;20450;-66
2022/05/07 04:32:27;;;;;;;2.70;1.98;;;;;;;;;;4176845;34;20122;-66
2022/05/07 04:34:57;;;;;;;4.80;2.45;;;;;;;;;;4175312;34;20126;-65
2022/05/07 04:37:24;;;;;;;3.60;2.15;;;;;;;;;;4163802;34;20448;-65
2022/05/07 04:39:51;;;;;;;3.70;2.20;;;;;;;;;;4164265;34;20098;-65
2022/05/07 04:42:17;;;;;;;10.35;2.90;;;;;;;;;;4177021;34;20113;-64
2022/05/07 04:44:43;;;;;;;2.50;2.22;;;;;;;;;;4176352;34;20217;-63
2022/05/07 04:47:09;;;;;;;2.95;1.70;;;;;;;;;;4173199;34;20137;-65
2022/05/07 04:49:36;;;;;;;2.50;1.70;;;;;;;;;;4165888;34;20178;-66
2022/05/07 04:52:05;;;;;;;2.70;1.87;;;;;;;;;;4176087;34;20134;-66
2022/05/07 04:54:32;;;;;;;4.60;2.22;;;;;;;;;;4167859;34;20210;-63
2022/05/07 04:56:58;;;;;;;5.00;2.20;;;;;;;;;;4171988;34;20552;-65
2022/05/07 04:59:25;;;;;;;3.72;2.10;;;;;;;;;;4171114;34;20629;-66
2022/05/07 05:01:50;;;;;;;2.70;1.83;;;;;;;;;;4172488;34;20149;-66
2022/05/07 05:04:17;;;;;;;2.37;1.65;;;;;;;;;;4172195;34;20556;-65
2022/05/07 05:06:43;;;;;;;5.05;2.17;;;;;;;;;;4172388;34;20133;-64
2022/05/07 05:09:10;;;;;;;5.35;1.73;;;;;;;;;;4173187;34;20621;-72
2022/05/07 05:11:39;;;;;;;3.17;1.90;;;;;;;;;;4152565;34;20205;-80
2022/05/07 05:16:51;;;;;;;4.25;1.70;;;;;;;;;;4173681;34;20114;-76
2022/05/07 05:19:21;;;;;;;2.25;1.80;;;;;;;;;;4176159;34;20126;-71
2022/05/07 05:21:48;;;;;;;2.22;1.70;;;;;;;;;;4154240;34;20593;-68
2022/05/07 05:24:14;;;;;;;4.03;1.60;;;;;;;;;;4177895;34;20148;-67
2022/05/07 05:26:40;;;;;;;1.87;1.25;;;;;;;;;;4178465;34;20107;-71
2022/05/07 05:29:06;;;;;;;2.65;1.37;;;;;;;;;;4165610;34;20104;-67
2022/05/07 05:31:32;;;;;;;3.95;1.60;;;;;;;;;;4178420;34;20547;-68
2022/05/07 05:33:58;;;;;;;3.55;1.55;;;;;;;;;;4178530;34;20112;-69
2022/05/07 05:36:26;;;;;;;3.12;1.62;;;;;;;;;;4178380;34;20122;-67
2022/05/07 05:38:53;;;;;;;10.07;1.80;;;;;;;;;;4178464;34;20166;-69
2022/05/07 05:41:20;;;;;;;4.22;2.30;;;;;;;;;;4178398;34;20117;-68
2022/05/07 05:43:46;;;;;;;4.43;1.60;;;;;;;;;;4178425;34;20129;-69
2022/05/07 05:46:14;;;;;;;2.05;1.65;;;;;;;;;;4178579;34;20114;-68
2022/05/07 05:48:40;;;;;;;1.80;1.55;;;;;;;;;;4178695;34;20230;-70
2022/05/07 05:51:07;;;;;;;4.03;2.37;;;;;;;;;;4178220;34;20117;-68
2022/05/07 05:53:33;;;;;;;3.85;2.20;;;;;;;;;;4178243;34;20169;-68
2022/05/07 05:56:00;;;;;;;3.00;1.90;;;;;;;;;;4178289;34;20495;-68
2022/05/07 05:58:33;;;;;;;4.93;2.22;;;;;;;;;;4178701;34;20117;-76
2022/05/07 06:01:00;;;;;;;2.70;1.95;;;;;;;;;;4167746;34;20117;-77
2022/05/07 06:03:26;;;;;;;4.60;1.92;;;;;;;;;;4166633;34;20114;-70
2022/05/07 06:05:52;;;;;;;6.30;1.85;;;;;;;;;;4154509;34;20091;-70
2022/05/07 06:08:18;;;;;;;4.50;2.03;;;;;;;;;;4178147;34;20130;-66
2022/05/07 06:10:44;;;;;;;2.87;1.73;;;;;;;;;;4176841;34;20590;-67
2022/05/07 06:13:10;;;;;;;4.78;2.30;;;;;;;;;;4176030;34;20202;-67
2022/05/07 06:15:38;;;;;;;7.85;1.77;;;;;;;;;;4163240;34;20130;-68
2022/05/07 06:18:04;;;;;;;1.83;1.60;;;;;;;;;;4175723;34;20130;-68
2022/05/07 06:20:30;;;;;;;3.28;2.05;;;;;;;;;;4175456;34;20530;-67
2022/05/07 06:23:00;;;;;;;4.65;1.90;;;;;;;;;;4162550;34;20111;-67
2022/05/07 06:28:11;;;;;;;2.92;2.03;;;;;;;;;;4173403;34;20114;-67
2022/05/07 06:30:37;;;;;;;3.78;2.03;;;;;;;;;;4173058;34;20220;-64
2022/05/07 06:33:03;;;;;;;2.33;1.90;;;;;;;;;;4173235;34;20214;-67
2022/05/07 06:35:29;;;;;;;4.37;2.25;;;;;;;;;;4159460;34;20106;-67
2022/05/07 06:37:55;;;;;;;2.58;1.98;;;;;;;;;;4173376;34;20149;-67
2022/05/07 06:40:21;;;;;;;5.15;1.87;;;;;;;;;;4177866;34;20611;-68
2022/05/07 06:42:47;;;;;;;3.55;2.20;;;;;;;;;;4165035;34;20213;-66
2022/05/07 06:45:13;;;;;;;3.60;1.87;;;;;;;;;;4177836;34;20548;-68
2022/05/07 06:47:39;;;;;;;2.05;1.70;;;;;;;;;;4177554;34;20226;-69
2022/05/07 06:50:05;;;;;;;5.22;2.00;;;;;;;;;;4177775;34;20182;-68
2022/05/07 06:52:31;;;;;;;2.65;1.70;;;;;;;;;;4176854;34;20128;-66
2022/05/07 06:54:57;;;;;;;2.70;1.83;;;;;;;;;;4168839;34;20095;-67
2022/05/07 06:57:24;;;;;;;8.82;2.00;;;;;;;;;;4177529;34;20194;-64
2022/05/07 06:59:51;;;;;;;3.28;1.65;;;;;;;;;;4177716;34;20102;-64
2022/05/07 07:02:17;;;;;;;3.12;1.83;;;;;;;;;;4177427;34;20126;-64
2022/05/07 07:04:43;;;;;;;2.35;1.87;;;;;;;;;;4177666;34;20134;-65
2022/05/07 07:07:09;;;;;;;3.12;1.70;;;;;;;;;;4177542;34;20545;-63
2022/05/07 07:09:35;;;;;;;2.50;1.75;;;;;;;;;;4177524;34;20206;-66
2022/05/07 07:12:01;;;;;;;2.67;1.73;;;;;;;;;;4177324;34;20142;-64
2022/05/07 07:14:27;;;;;;;2.83;1.48;;;;;;;;;;4177326;34;20123;-65
2022/05/07 07:16:53;;;;;;;2.10;1.67;;;;;;;;;;4177691;34;20122;-70
2022/05/07 07:19:19;;;;;;;2.15;1.70;;;;;;;;;;4177505;34;20145;-63
2022/05/07 07:21:45;;;;;;;3.80;2.00;;;;;;;;;;4177535;34;20213;-66
2022/05/07 07:24:11;;;;;;;2.00;1.60;;;;;;;;;;4177159;34;20126;-70
2022/05/07 07:26:37;;;;;;;1.60;1.50;;;;;;;;;;4177191;34;20114;-68
2022/05/07 07:29:03;;;;;;;3.70;1.42;;;;;;;;;;4176760;34;20098;-66
2022/05/07 07:31:31;;;;;;;1.10;1.00;;;;;;;;;;4141876;34;20519;-67
2022/05/07 07:33:57;;;;;;;1.52;1.30;;;;;;;;;;4175934;34;20110;-64
2022/05/07 07:36:23;;;;;;;2.58;1.52;;;;;;;;;;4174687;34;20459;-63
2022/05/07 07:38:49;;;;;;;2.47;1.60;;;;;;;;;;4176920;34;20126;-64
2022/05/07 07:41:15;;;;;;;2.17;1.70;;;;;;;;;;4177629;34;20121;-62
2022/05/07 07:43:41;;;;;;;6.12;1.92;;;;;;;;;;4177391;34;20106;-64
2022/05/07 07:48:52;;;;;;;2.70;1.80;;;;;;;;;;4176875;34;20126;-63
2022/05/07 07:51:18;;;;;;;2.78;1.73;;;;;;;;;;4176843;34;20487;-63
2022/05/07 07:53:44;;;;;;;1.50;1.27;;;;;;;;;;4163156;34;20117;-63
2022/05/07 07:56:12;;;;;;;2.78;1.60;;;;;;;;;;4176695;34;20197;-63
2022/05/07 07:58:38;;;;;;;2.58;1.75;;;;;;;;;;4176973;34;20274;-64
2022/05/07 08:01:04;;;;;;;2.83;1.73;;;;;;;;;;4176631;34;20110;-65
2022/05/07 08:03:30;;;;;;;5.70;1.92;;;;;;;;;;4177040;34;20114;-66
2022/05/07 08:05:57;;;;;;;2.85;2.20;;;;;;;;;;4149933;34;20451;-66
2022/05/07 08:13:53;;;;;;;4.20;2.07;;;;;;;;;;4152802;34;20118;-66
2022/05/07 08:16:19;;;;;;;2.75;2.22;;;;;;;;;;4177156;34;20106;-67
2022/05/07 08:18:46;;;;;;;2.40;1.92;;;;;;;;;;4176916;34;20193;-67
2022/05/07 08:21:12;;;;;;;5.47;2.50;;;;;;;;;;4177034;34;20243;-67
2022/05/07 08:23:39;;;;;;;3.85;2.20;;;;;;;;;;4152757;34;20460;-67
2022/05/07 08:26:06;;;;;;;3.05;2.03;;;;;;;;;;4176974;34;20087;-67
2022/05/07 08:28:36;;;;;;;6.00;2.70;;;;;;;;;;4164036;34;20125;-69
2022/05/07 08:31:02;;;;;;;4.10;2.65;;;;;;;;;;4162454;34;20483;-69
2022/05/07 08:33:29;;;;;;;2.62;1.83;;;;;;;;;;4161946;34;20660;-67
2022/05/07 08:35:55;;;;;;;4.55;2.03;;;;;;;;;;4150748;34;20206;-70
2022/05/07 08:38:21;;;;;;;2.70;2.12;;;;;;;;;;4162308;34;20737;-70
2022/05/07 08:40:47;;;;;;;17.75;3.12;;;;;;;;;;4175139;34;20118;-70
2022/05/07 08:43:15;;;;;;;3.72;2.15;;;;;;;;;;4175261;34;20122;-70
2022/05/07 08:45:41;;;;;;;3.45;2.00;;;;;;;;;;4163426;34;20082;-75
2022/05/07 08:48:08;;;;;;;2.70;1.80;;;;;;;;;;4177101;34;20117;-73
2022/05/07 08:50:34;;;;;;;2.28;1.60;;;;;;;;;;4164179;34;20768;-70
2022/05/07 08:53:00;;;;;;;2.28;1.70;;;;;;;;;;4176387;34;20190;-72
2022/05/07 08:55:26;;;;;;;2.65;1.80;;;;;;;;;;4176851;34;20615;-74
2022/05/07 08:57:53;;;;;;;3.30;1.75;;;;;;;;;;4163418;34;20594;-69
2022/05/07 09:00:24;;;;;;;2.53;1.85;;;;;;;;;;4163907;34;20105;-69
2022/05/07 09:02:55;;;;;;;2.42;1.60;;;;;;;;;;4176491;34;20479;-71
2022/05/07 09:05:31;;;;;;;2.95;2.08;;;;;;;;;;4164028;34;20206;-68
2022/05/07 09:07:59;;;;;;;4.37;1.70;;;;;;;;;;4152495;34;20155;-70
2022/05/07 09:10:28;;;;;;;5.95;1.87;;;;;;;;;;4176662;34;20095;-71
2022/05/07 09:13:13;;;;;;;4.55;1.70;;;;;;;;;;4176411;34;20203;-72
2022/05/07 09:15:53;;;;;;;1.70;1.50;;;;;;;;;;4176582;34;20316;-71
2022/05/07 09:18:20;;;;;;;4.25;1.98;;;;;;;;;;4152295;34;20149;-72
2022/05/07 09:21:16;;;;;;;2.87;1.70;;;;;;;;;;4163797;34;20098;-72
2022/05/07 09:23:43;;;;;;;3.47;2.12;;;;;;;;;;4165105;34;20207;-72
2022/05/07 09:26:10;;;;;;;2.60;1.80;;;;;;;;;;4163613;34;20102;-71
2022/05/07 09:28:38;;;;;;;3.28;1.77;;;;;;;;;;4152002;34;20121;-71
2022/05/07 09:31:04;;;;;;;3.90;1.92;;;;;;;;;;4176235;34;20106;-71
2022/05/07 09:33:33;;;;;;;9.65;3.95;;;;;;;;;;4175986;34;20867;-71
2022/05/07 09:36:10;;;;;;;3.85;1.67;;;;;;;;;;4163576;34;20110;-70
2022/05/07 09:38:37;;;;;;;7.30;2.20;;;;;;;;;;4176296;34;20083;-70
2022/05/07 09:41:04;;;;;;;5.15;2.15;;;;;;;;;;4152308;34;20133;-71
2022/05/07 09:43:31;;;;;;;7.30;2.12;;;;;;;;;;4163462;34;20134;-70
2022/05/07 09:45:57;;;;;;;5.87;2.20;;;;;;;;;;4163622;34;20102;-72
2022/05/07 09:48:23;;;;;;;3.75;1.85;;;;;;;;;;4152428;34;20122;-71
2022/05/07 09:50:50;;;;;;;2.70;1.83;;;;;;;;;;4163523;34;20476;-70
2022/05/07 09:58:47;;;;;;;5.85;2.10;;;;;;;;;;4164696;34;20001;-70
2022/05/07 10:01:38;;;;;;;4.93;1.85;;;;;;;;;;4162977;34;20603;-71
2022/05/07 10:04:41;;;;;;;4.55;2.20;;;;;;;;;;4175704;34;20442;-69
2022/05/07 10:07:34;;;;;;;4.30;2.20;;;;;;;;;;4175987;34;20459;-68
2022/05/07 10:10:25;;;;;;;3.12;1.80;;;;;;;;;;4176574;34;20091;-69
2022/05/07 10:12:55;;;;;;;2.33;1.85;;;;;;;;;;4165256;34;20138;-72
2022/05/07 10:15:23;;;;;;;2.10;1.90;;;;;;;;;;4165549;34;20194;-69
2022/05/07 10:18:07;;;;;;;3.12;1.98;;;;;;;;;;4178154;34;20134;-69
2022/05/07 10:20:38;;;;;;;2.55;1.90;;;;;;;;;;4178138;34;20120;-70
2022/05/07 10:23:04;;;;;;;2.17;1.85;;;;;;;;;;4165582;34;20129;-69
2022/05/07 10:25:30;;;;;;;1.83;1.65;;;;;;;;;;4165334;34;20103;-69
2022/05/07 10:28:15;;;;;;;2.00;1.70;;;;;;;;;;4177881;34;20630;-69
2022/05/07 10:30:46;;;;;;;2.20;1.73;;;;;;;;;;4165550;34;20118;-70
2022/05/07 10:33:12;;;;;;;13.30;2.25;;;;;;;;;;4165365;34;20189;-72
2022/05/07 10:35:52;;;;;;;2.33;1.77;;;;;;;;;;4177949;34;20610;-67
2022/05/07 10:38:26;;;;;;;3.30;1.80;;;;;;;;;;4177850;34;20125;-70
2022/05/07 10:41:01;;;;;;;7.78;2.50;;;;;;;;;;4177946;34;20095;-68
2022/05/07 10:43:28;;;;;;;2.60;1.92;;;;;;;;;;4165100;34;20098;-68
2022/05/07 10:46:19;;;;;;;5.55;1.95;;;;;;;;;;4165140;34;20447;-68
2022/05/07 10:48:57;;;;;;;3.55;2.12;;;;;;;;;;4153860;34;20101;-67
2022/05/07 10:51:30;;;;;;;3.78;1.60;;;;;;;;;;4165145;34;20115;-69
2022/05/07 10:53:59;;;;;;;3.37;2.75;;;;;;;;;;4177837;34;20196;-70
2022/05/07 10:56:25;;;;;;;5.12;1.92;;;;;;;;;;4164855;34;20115;-69
2022/05/07 10:58:52;;;;;;;4.32;1.70;;;;;;;;;;4177580;34;20110;-74
2022/05/07 11:01:21;;;;;;;5.10;2.67;;;;;;;;;;4177691;34;20116;-74
2022/05/07 11:03:48;;;;;;;4.18;1.58;;;;;;;;;;4153828;34;20429;-69
2022/05/07 11:06:14;;;;;;;2.58;1.83;;;;;;;;;;4177864;34;20126;-71
2022/05/07 11:08:52;;;;;;;5.80;1.80;;;;;;;;;;4164995;34;20103;-69
2022/05/07 11:11:18;;;;;;;2.97;1.80;;;;;;;;;;4164956;34;20178;-70
2022/05/07 11:13:51;;;;;;;4.28;1.80;;;;;;;;;;4142668;34;20110;-69
2022/05/07 11:16:18;;;;;;;5.05;2.53;;;;;;;;;;4164877;34;20109;-72
2022/05/07 11:18:47;;;;;;;5.10;2.60;;;;;;;;;;4164542;34;20114;-70
2022/05/07 11:21:13;;;;;;;1.73;1.62;;;;;;;;;;4177184;34;20451;-69
2022/05/07 11:23:39;;;;;;;4.78;2.53;;;;;;;;;;4177496;34;20111;-66
2022/05/07 11:26:15;;;;;;;3.55;2.40;;;;;;;;;;4164922;34;20123;-67
2022/05/07 11:28:44;;;;;;;2.78;2.20;;;;;;;;;;4153723;34;20187;-68
2022/05/07 11:31:12;;;;;;;3.33;1.75;;;;;;;;;;4164418;34;20201;-64
2022/05/07 11:33:38;;;;;;;5.25;1.90;;;;;;;;;;4176732;34;20125;-66
2022/05/07 11:36:06;;;;;;;3.87;2.00;;;;;;;;;;4164708;34;20125;-71
2022/05/07 11:38:36;;;;;;;3.22;2.35;;;;;;;;;;4165022;34;20191;-72
2022/05/07 11:41:14;;;;;;;3.20;2.37;;;;;;;;;;4164278;34;20102;-69
2022/05/07 11:46:25;;;;;;;8.33;2.90;;;;;;;;;;4175332;34;20134;-68
2022/05/07 11:48:52;;;;;;;5.37;1.83;;;;;;;;;;4163735;34;20121;-70
2022/05/07 11:51:25;;;;;;;6.28;1.95;;;;;;;;;;4177218;34;20537;-70
2022/05/07 11:53:51;;;;;;;3.97;1.85;;;;;;;;;;4153587;34;20106;-69
2022/05/07 11:56:18;;;;;;;5.03;2.28;;;;;;;;;;4142163;34;20112;-69
2022/05/07 11:58:46;;;;;;;3.37;1.98;;;;;;;;;;4164605;34;20130;-69
2022/05/07 12:01:23;;;;;;;3.20;2.12;;;;;;;;;;4153395;34;20130;-70
2022/05/07 12:03:50;;;;;;;3.55;1.95;;;;;;;;;;4164537;34;20109;-68
2022/05/07 12:06:27;;;;;;;5.07;1.90;;;;;;;;;;4177176;34;20112;-70
2022/05/07 12:08:54;;;;;;;2.78;2.28;;;;;;;;;;4164501;34;20519;-70
2022/05/07 12:11:20;;;;;;;5.12;3.92;;;;;;;;;;4164374;34;20109;-71
2022/05/07 12:13:46;;;;;;;6.65;4.43;;;;;;;;;;4152957;34;20114;-71
2022/05/07 12:18:57;;;;;;;3.12;2.10;;;;;;;;;;4166045;34;20198;-74
2022/05/07 12:29:49;;;;;;;3.47;2.58;;;;;;;;;;4176921;34;20129;-70
2022/05/07 12:32:24;;;;;;;5.90;3.35;;;;;;;;;;4176120;34;20102;-68
2022/05/07 12:34:50;;;;;;;5.62;2.90;;;;;;;;;;4164129;34;20206;-68
2022/05/07 12:37:16;;;;;;;5.05;2.20;;;;;;;;;;4177177;34;20125;-71
2022/05/07 12:39:43;;;;;;;2.25;2.08;;;;;;;;;;4176906;34;20547;-70
2022/05/07 12:42:10;;;;;;;3.20;2.67;;;;;;;;;;4164130;34;20145;-71
2022/05/07 12:44:37;;;;;;;2.37;1.95;;;;;;;;;;4176993;34;20174;-72
2022/05/07 12:47:05;;;;;;;2.05;1.73;;;;;;;;;;4164552;34;20124;-72
2022/05/07 12:49:31;;;;;;;2.53;2.08;;;;;;;;;;4176894;34;20133;-71
2022/05/07 12:51:57;;;;;;;2.42;1.90;;;;;;;;;;4164398;34;20138;-70
2022/05/07 12:54:23;;;;;;;3.47;1.95;;;;;;;;;;4177036;34;20722;-66
2022/05/07 12:56:49;;;;;;;2.17;1.60;;;;;;;;;;4177059;34;20122;-70
2022/05/07 12:59:16;;;;;;;2.85;2.00;;;;;;;;;;4163794;34;20211;-70
2022/05/07 13:01:42;;;;;;;1.73;1.60;;;;;;;;;;4176670;34;20122;-70
2022/05/07 13:04:08;;;;;;;4.18;2.00;;;;;;;;;;4163977;34;20117;-70
2022/05/07 13:06:33;;;;;;;4.15;2.03;;;;;;;;;;4176768;34;20541;-70
2022/05/07 13:09:00;;;;;;;3.83;2.28;;;;;;;;;;4152519;34;20446;-65
2022/05/07 13:11:27;;;;;;;3.35;2.10;;;;;;;;;;4176486;34;20482;-63
2022/05/07 13:13:54;;;;;;;4.10;2.70;;;;;;;;;;4175514;34;20482;-66
2022/05/07 13:16:20;;;;;;;1.80;1.70;;;;;;;;;;4174490;34;20209;-67
2022/05/07 13:18:46;;;;;;;3.45;1.70;;;;;;;;;;4161630;34;20118;-67
2022/05/07 13:21:12;;;;;;;4.15;2.10;;;;;;;;;;4162128;34;20463;-68
2022/05/07 13:23:39;;;;;;;2.20;1.87;;;;;;;;;;4174490;34;20110;-69
2022/05/07 13:26:05;;;;;;;3.50;2.05;;;;;;;;;;4150515;34;20129;-65
2022/05/07 13:28:31;;;;;;;1.80;1.70;;;;;;;;;;4162861;34;20118;-66
2022/05/07 13:30:58;;;;;;;2.50;1.80;;;;;;;;;;4175928;34;20107;-66
2022/05/07 13:33:25;;;;;;;3.62;2.10;;;;;;;;;;4176184;34;20218;-67
2022/05/07 13:35:51;;;;;;;3.62;2.03;;;;;;;;;;4176297;34;20231;-66
2022/05/07 13:38:18;;;;;;;2.87;2.08;;;;;;;;;;4163489;34;20111;-67
2022/05/07 13:40:44;;;;;;;4.60;1.85;;;;;;;;;;4175954;34;20198;-65
2022/05/07 13:43:11;;;;;;;6.28;3.17;;;;;;;;;;4176601;34;20090;-64
2022/05/07 13:45:37;;;;;;;2.12;1.80;;;;;;;;;;4178356;34;20109;-65
2022/05/07 13:48:07;;;;;;;6.03;2.40;;;;;;;;;;4165677;34;20122;-65
2022/05/07 13:50:34;;;;;;;2.70;1.80;;;;;;;;;;4154602;34;20114;-65
2022/05/07 13:53:00;;;;;;;4.43;1.80;;;;;;;;;;4178213;34;20185;-65
2022/05/07 13:55:26;;;;;;;3.97;1.90;;;;;;;;;;4178502;34;20122;-65
2022/05/07 13:57:52;;;;;;;3.97;2.20;;;;;;;;;;4178331;34;20110;-66
2022/05/07 14:00:19;;;;;;;3.97;2.05;;;;;;;;;;4178254;34;20126;-67
2022/05/07 14:02:46;;;;;;;3.55;1.90;;;;;;;;;;4178127;34;20621;-68
2022/05/07 14:05:16;;;;;;;4.57;1.87;;;;;;;;;;4165586;34;20217;-65
2022/05/07 14:07:43;;;;;;;3.67;2.15;;;;;;;;;;4178394;34;20115;-66
2022/05/07 14:10:10;;;;;;;4.28;2.22;;;;;;;;;;4178027;34;20111;-65
2022/05/07 14:12:36;;;;;;;2.55;1.77;;;;;;;;;;4165190;34;20094;-65
2022/05/07 14:15:03;;;;;;;3.30;2.12;;;;;;;;;;4178141;34;20130;-64
2022/05/07 14:17:29;;;;;;;2.03;1.70;;;;;;;;;;4178070;34;20603;-67
2022/05/07 14:19:59;;;;;;;3.37;1.90;;;;;;;;;;4165268;34;20141;-67
2022/05/07 14:22:26;;;;;;;4.55;2.40;;;;;;;;;;4177897;34;20133;-64
2022/05/07 14:24:54;;;;;;;3.95;2.00;;;;;;;;;;4177993;34;20122;-64
2022/05/07 14:27:20;;;;;;;7.30;2.33;;;;;;;;;;4154379;34;20129;-66
2022/05/07 14:29:46;;;;;;;5.22;2.10;;;;;;;;;;4178027;34;20122;-64
2022/05/07 14:32:13;;;;;;;2.80;1.83;;;;;;;;;;4177907;34;20117;-64
2022/05/07 14:34:39;;;;;;;2.62;1.90;;;;;;;;;;4164964;34;20117;-64
2022/05/07 14:37:05;;;;;;;4.55;2.20;;;;;;;;;;4178386;34;20157;-63
2022/05/07 14:39:31;;;;;;;3.17;2.78;;;;;;;;;;4165147;34;20121;-65
2022/05/07 14:41:57;;;;;;;2.30;2.10;;;;;;;;;;4164924;34;20205;-65
2022/05/07 14:44:23;;;;;;;7.87;3.33;;;;;;;;;;4165016;34;20141;-64
2022/05/07 14:46:50;;;;;;;4.50;2.08;;;;;;;;;;4177683;34;20222;-67
2022/05/07 14:49:16;;;;;;;4.65;2.10;;;;;;;;;;4177858;34;20134;-66
2022/05/07 14:51:42;;;;;;;3.55;2.30;;;;;;;;;;4164940;34;20133;-69
2022/05/07 14:54:08;;;;;;;4.78;2.50;;;;;;;;;;4151959;34;20569;-68
2022/05/07 14:56:37;;;;;;;4.60;2.85;;;;;;;;;;4170287;34;20118;-67
2022/05/07 14:59:03;;;;;;;3.47;2.10;;;;;;;;;;4171614;34;20512;-68
2022/05/07 15:02:09;;;;;;;3.03;2.25;;;;;;;;;;4164063;34;20101;-72
2022/05/07 15:04:50;;;;;;;3.03;2.00;;;;;;;;;;4163871;34;20087;-73
2022/05/07 15:07:18;;;;;;;6.30;2.10;;;;;;;;;;4162585;34;20114;-69
2022/05/07 15:12:29;;;;;;;7.60;2.50;;;;;;;;;;4173529;34;20472;-71
2022/05/07 15:14:55;;;;;;;4.50;2.10;;;;;;;;;;4177500;34;20142;-65
2022/05/07 15:17:21;;;;;;;6.37;2.20;;;;;;;;;;4177778;34;20512;-67
2022/05/07 15:19:47;;;;;;;4.05;2.30;;;;;;;;;;4177715;34;20129;-69
2022/05/07 15:22:13;;;;;;;9.35;2.62;;;;;;;;;;4176029;34;20122;-67
2022/05/07 15:24:39;;;;;;;4.45;2.75;;;;;;;;;;4168981;34;20094;-66
2022/05/07 15:27:05;;;;;;;7.37;1.90;;;;;;;;;;4163620;34;20444;-69
2022/05/07 15:29:31;;;;;;;2.67;2.10;;;;;;;;;;4171168;34;20128;-66
2022/05/07 15:37:29;;;;;;;6.30;2.97;;;;;;;;;;4176965;34;20188;-70
2022/05/07 15:39:55;;;;;;;3.35;2.28;;;;;;;;;;4176816;34;20166;-75
2022/05/07 15:42:21;;;;;;;5.15;2.55;;;;;;;;;;4175770;34;20447;-71
2022/05/07 15:44:47;;;;;;;8.23;2.30;;;;;;;;;;4164243;34;20273;-72
2022/05/07 15:47:13;;;;;;;4.18;2.53;;;;;;;;;;4177210;34;20459;-71
2022/05/07 15:49:39;;;;;;;3.65;2.30;;;;;;;;;;4177041;34;20122;-74
2022/05/07 15:52:12;;;;;;;3.22;2.28;;;;;;;;;;4172441;34;20141;-68
2022/05/07 15:54:38;;;;;;;4.95;2.10;;;;;;;;;;4163989;34;20133;-69
2022/05/07 15:57:08;;;;;;;7.55;2.53;;;;;;;;;;4139746;34;20454;-72
2022/05/07 15:59:38;;;;;;;8.00;2.65;;;;;;;;;;4163593;34;20539;-69
2022/05/07 16:02:04;;;;;;;3.62;2.30;;;;;;;;;;4162937;34;20114;-70
2022/05/07 16:04:30;;;;;;;7.47;2.70;;;;;;;;;;4163461;34;20190;-67
2022/05/07 16:06:57;;;;;;;5.65;2.55;;;;;;;;;;4163194;34;20111;-66
2022/05/07 16:09:23;;;;;;;7.32;2.58;;;;;;;;;;4129250;34;20579;-68